sensor_id;sensor_type;location;lat;lon;timestamp;pressure;altitude;pressure_sealevel;temperature;humidity
28648;BME280;17137;51.494;-0.262;2023-01-26T00:00:17;50693.66;;;-145.72;97.91
28648;BME280;17137;51.494;-0.262;2023-01-26T00:00:47;50693.41;;;-145.72;97.91
28648;BME280;17137;51.494;-0.262;2023-01-26T00:01:19;50690.21;;;-145.72;97.73
28648;BME280;17137;51.494;-0.262;2023-01-26T00:01:50;50705.12;;;-145.72;97.57
28648;BME280;17137;51.494;-0.262;2023-01-26T00:02:20;50694.27;;;-145.72;97.46
28648;BME280;17137;51.494;-0.262;2023-01-26T00:02:51;50694.27;;;-145.72;97.83
28648;BME280;17137;51.494;-0.262;2023-01-26T00:03:21;50695.88;;;-145.72;97.57
28648;BME280;17137;51.494;-0.262;2023-01-26T00:03:51;50695.63;;;-145.72;97.19
28648;BME280;17137;51.494;-0.262;2023-01-26T00:04:22;50697.48;;;-145.72;97.29
28648;BME280;17137;51.494;-0.262;2023-01-26T00:04:52;50694.03;;;-145.72;97.49
28648;BME280;17137;51.494;-0.262;2023-01-26T00:05:23;50703.15;;;-145.72;97.81
28648;BME280;17137;51.494;-0.262;2023-01-26T00:05:53;50709.32;;;-145.72;97.99
28648;BME280;17137;51.494;-0.262;2023-01-26T00:06:24;50693.41;;;-145.72;98.11
28648;BME280;17137;51.494;-0.262;2023-01-26T00:06:54;50700.19;;;-145.72;98.01
28648;BME280;17137;51.494;-0.262;2023-01-26T00:07:27;50696.99;;;-145.72;98.23
28648;BME280;17137;51.494;-0.262;2023-01-26T00:07:57;50693.17;;;-145.72;97.98
28648;BME280;17137;51.494;-0.262;2023-01-26T00:08:27;50689.34;;;-145.72;97.88
28648;BME280;17137;51.494;-0.262;2023-01-26T00:08:58;50710.79;;;-145.72;98.11
28648;BME280;17137;51.494;-0.262;2023-01-26T00:09:28;50692.67;;;-145.72;98.19
28648;BME280;17137;51.494;-0.262;2023-01-26T00:09:58;50711.41;;;-145.72;98.30
28648;BME280;17137;51.494;-0.262;2023-01-26T00:10:29;50704.88;;;-145.72;98.47
28648;BME280;17137;51.494;-0.262;2023-01-26T00:11:03;50707.22;;;-145.72;98.72
28648;BME280;17137;51.494;-0.262;2023-01-26T00:11:33;50703.03;;;-145.72;98.90
28648;BME280;17137;51.494;-0.262;2023-01-26T00:12:04;50717.33;;;-145.72;98.92
28648;BME280;17137;51.494;-0.262;2023-01-26T00:12:34;50708.95;;;-145.72;98.95
28648;BME280;17137;51.494;-0.262;2023-01-26T00:13:05;50711.16;;;-145.72;98.84
28648;BME280;17137;51.494;-0.262;2023-01-26T00:13:37;50703.15;;;-145.72;99.13
28648;BME280;17137;51.494;-0.262;2023-01-26T00:14:07;50716.84;;;-145.72;99.25
28648;BME280;17137;51.494;-0.262;2023-01-26T00:14:37;50705.00;;;-145.72;99.18
28648;BME280;17137;51.494;-0.262;2023-01-26T00:15:08;50704.63;;;-145.72;98.87
28648;BME280;17137;51.494;-0.262;2023-01-26T00:15:39;50709.07;;;-145.72;98.83
28648;BME280;17137;51.494;-0.262;2023-01-26T00:16:12;50705.00;;;-145.72;98.77
28648;BME280;17137;51.494;-0.262;2023-01-26T00:16:43;50712.03;;;-145.72;98.95
28648;BME280;17137;51.494;-0.262;2023-01-26T00:17:13;50698.10;;;-145.72;98.94
28648;BME280;17137;51.494;-0.262;2023-01-26T00:17:44;50702.66;;;-145.72;98.80
28648;BME280;17137;51.494;-0.262;2023-01-26T00:18:14;50715.73;;;-145.72;98.83
28648;BME280;17137;51.494;-0.262;2023-01-26T00:18:45;50709.44;;;-145.72;98.77
28648;BME280;17137;51.494;-0.262;2023-01-26T00:19:15;50700.44;;;-145.72;98.56
28648;BME280;17137;51.494;-0.262;2023-01-26T00:19:45;50705.74;;;-145.72;98.70
28648;BME280;17137;51.494;-0.262;2023-01-26T00:20:16;50705.00;;;-145.72;98.65
28648;BME280;17137;51.494;-0.262;2023-01-26T00:20:46;50705.86;;;-145.72;98.70
28648;BME280;17137;51.494;-0.262;2023-01-26T00:21:18;50716.34;;;-145.72;98.83
28648;BME280;17137;51.494;-0.262;2023-01-26T00:21:49;50724.85;;;-145.72;99.18
28648;BME280;17137;51.494;-0.262;2023-01-26T00:22:20;50708.58;;;-145.72;98.86
28648;BME280;17137;51.494;-0.262;2023-01-26T00:22:50;50710.18;;;-145.72;98.77
28648;BME280;17137;51.494;-0.262;2023-01-26T00:23:20;50704.51;;;-145.72;98.62
28648;BME280;17137;51.494;-0.262;2023-01-26T00:23:51;50700.07;;;-145.72;98.22
28648;BME280;17137;51.494;-0.262;2023-01-26T00:24:22;50701.06;;;-145.72;98.18
28648;BME280;17137;51.494;-0.262;2023-01-26T00:24:52;50711.78;;;-145.72;98.13
28648;BME280;17137;51.494;-0.262;2023-01-26T00:25:22;50715.85;;;-145.72;98.30
28648;BME280;17137;51.494;-0.262;2023-01-26T00:25:53;50699.33;;;-145.72;98.18
28648;BME280;17137;51.494;-0.262;2023-01-26T00:26:25;50691.81;;;-145.72;98.04
28648;BME280;17137;51.494;-0.262;2023-01-26T00:26:56;50699.21;;;-145.72;97.82
28648;BME280;17137;51.494;-0.262;2023-01-26T00:27:26;50713.26;;;-145.72;98.08
28648;BME280;17137;51.494;-0.262;2023-01-26T00:27:57;50703.27;;;-145.72;98.01
28648;BME280;17137;51.494;-0.262;2023-01-26T00:28:28;50708.70;;;-145.72;97.60
28648;BME280;17137;51.494;-0.262;2023-01-26T00:28:59;50703.15;;;-145.72;97.67
28648;BME280;17137;51.494;-0.262;2023-01-26T00:29:29;50718.07;;;-145.72;98.12
28648;BME280;17137;51.494;-0.262;2023-01-26T00:30:01;50704.75;;;-145.72;98.08
28648;BME280;17137;51.494;-0.262;2023-01-26T00:30:31;50714.25;;;-145.72;98.24
28648;BME280;17137;51.494;-0.262;2023-01-26T00:31:03;50720.41;;;-145.72;98.01
28648;BME280;17137;51.494;-0.262;2023-01-26T00:31:33;50721.40;;;-145.72;98.55
28648;BME280;17137;51.494;-0.262;2023-01-26T00:32:04;50730.27;;;-145.72;98.68
28648;BME280;17137;51.494;-0.262;2023-01-26T00:32:35;50722.88;;;-145.72;98.60
28648;BME280;17137;51.494;-0.262;2023-01-26T00:33:05;50715.73;;;-145.72;98.45
28648;BME280;17137;51.494;-0.262;2023-01-26T00:33:41;50726.57;;;-145.72;98.62
28648;BME280;17137;51.494;-0.262;2023-01-26T00:34:11;50724.60;;;-145.72;98.90
28648;BME280;17137;51.494;-0.262;2023-01-26T00:34:41;50728.30;;;-145.72;98.94
28648;BME280;17137;51.494;-0.262;2023-01-26T00:35:12;50721.64;;;-145.72;98.97
28648;BME280;17137;51.494;-0.262;2023-01-26T00:35:43;50739.03;;;-145.72;99.03
28648;BME280;17137;51.494;-0.262;2023-01-26T00:36:13;50718.81;;;-145.72;99.01
28648;BME280;17137;51.494;-0.262;2023-01-26T00:36:44;50730.52;;;-145.72;98.99
28648;BME280;17137;51.494;-0.262;2023-01-26T00:37:14;50728.18;;;-145.72;99.25
28648;BME280;17137;51.494;-0.262;2023-01-26T00:37:44;50728.92;;;-145.72;99.10
28648;BME280;17137;51.494;-0.262;2023-01-26T00:38:15;50731.51;;;-145.72;99.15
28648;BME280;17137;51.494;-0.262;2023-01-26T00:38:45;50726.82;;;-145.72;99.08
28648;BME280;17137;51.494;-0.262;2023-01-26T00:39:16;50722.51;;;-145.72;98.81
28648;BME280;17137;51.494;-0.262;2023-01-26T00:39:46;50722.14;;;-145.72;98.52
28648;BME280;17137;51.494;-0.262;2023-01-26T00:40:16;50714.12;;;-145.72;98.40
28648;BME280;17137;51.494;-0.262;2023-01-26T00:40:47;50728.05;;;-145.72;98.49
28648;BME280;17137;51.494;-0.262;2023-01-26T00:41:17;50731.63;;;-145.72;98.74
28648;BME280;17137;51.494;-0.262;2023-01-26T00:41:47;50721.40;;;-145.72;98.53
28648;BME280;17137;51.494;-0.262;2023-01-26T00:42:18;50722.51;;;-145.72;98.21
28648;BME280;17137;51.494;-0.262;2023-01-26T00:42:48;50720.29;;;-145.72;97.85
28648;BME280;17137;51.494;-0.262;2023-01-26T00:43:18;50714.25;;;-145.72;97.75
28648;BME280;17137;51.494;-0.262;2023-01-26T00:43:48;50726.20;;;-145.72;97.59
28648;BME280;17137;51.494;-0.262;2023-01-26T00:44:19;50723.74;;;-145.72;97.57
28648;BME280;17137;51.494;-0.262;2023-01-26T00:44:50;50715.85;;;-145.72;97.34
28648;BME280;17137;51.494;-0.262;2023-01-26T00:45:20;50717.33;;;-145.72;96.91
28648;BME280;17137;51.494;-0.262;2023-01-26T00:45:51;50718.19;;;-145.72;97.11
28648;BME280;17137;51.494;-0.262;2023-01-26T00:46:21;50724.11;;;-145.72;97.52
28648;BME280;17137;51.494;-0.262;2023-01-26T00:46:51;50716.10;;;-145.72;97.77
28648;BME280;17137;51.494;-0.262;2023-01-26T00:47:22;50714.12;;;-145.72;97.60
28648;BME280;17137;51.494;-0.262;2023-01-26T00:47:52;50725.96;;;-145.72;97.26
28648;BME280;17137;51.494;-0.262;2023-01-26T00:48:51;50732.37;;;-145.72;97.57
28648;BME280;17137;51.494;-0.262;2023-01-26T00:49:22;50729.90;;;-145.72;97.43
28648;BME280;17137;51.494;-0.262;2023-01-26T00:49:52;50739.15;;;-145.72;98.06
28648;BME280;17137;51.494;-0.262;2023-01-26T00:50:22;50728.30;;;-145.72;97.85
28648;BME280;17137;51.494;-0.262;2023-01-26T00:50:53;50722.38;;;-145.72;98.02
28648;BME280;17137;51.494;-0.262;2023-01-26T00:51:23;50724.97;;;-145.72;97.84
28648;BME280;17137;51.494;-0.262;2023-01-26T00:51:53;50730.40;;;-145.72;97.77
28648;BME280;17137;51.494;-0.262;2023-01-26T00:52:24;50733.48;;;-145.72;97.63
28648;BME280;17137;51.494;-0.262;2023-01-26T00:52:54;50719.05;;;-145.72;97.78
28648;BME280;17137;51.494;-0.262;2023-01-26T00:53:24;50736.31;;;-145.72;97.66
28648;BME280;17137;51.494;-0.262;2023-01-26T00:53:55;50729.16;;;-145.72;97.95
28648;BME280;17137;51.494;-0.262;2023-01-26T00:54:25;50728.55;;;-145.72;97.68
28648;BME280;17137;51.494;-0.262;2023-01-26T00:54:55;50733.23;;;-145.72;97.74
28648;BME280;17137;51.494;-0.262;2023-01-26T00:55:26;50723.74;;;-145.72;97.94
28648;BME280;17137;51.494;-0.262;2023-01-26T00:55:56;50732.49;;;-145.72;97.82
28648;BME280;17137;51.494;-0.262;2023-01-26T00:56:27;50733.23;;;-145.72;97.79
28648;BME280;17137;51.494;-0.262;2023-01-26T00:56:58;50748.77;;;-145.72;98.10
28648;BME280;17137;51.494;-0.262;2023-01-26T00:57:28;50732.74;;;-145.72;98.20
28648;BME280;17137;51.494;-0.262;2023-01-26T00:57:59;50737.18;;;-145.72;98.12
28648;BME280;17137;51.494;-0.262;2023-01-26T00:58:29;50723.62;;;-145.72;98.00
28648;BME280;17137;51.494;-0.262;2023-01-26T00:59:00;50726.45;;;-145.72;97.99
28648;BME280;17137;51.494;-0.262;2023-01-26T00:59:30;50724.97;;;-145.72;97.86
28648;BME280;17137;51.494;-0.262;2023-01-26T01:00:00;50728.42;;;-145.72;97.77
28648;BME280;17137;51.494;-0.262;2023-01-26T01:00:32;50740.01;;;-145.72;98.10
28648;BME280;17137;51.494;-0.262;2023-01-26T01:01:03;50736.44;;;-145.72;98.20
28648;BME280;17137;51.494;-0.262;2023-01-26T01:01:33;50734.22;;;-145.72;98.62
28648;BME280;17137;51.494;-0.262;2023-01-26T01:02:04;50732.00;;;-145.72;98.21
28648;BME280;17137;51.494;-0.262;2023-01-26T01:02:34;50736.81;;;-145.72;98.24
28648;BME280;17137;51.494;-0.262;2023-01-26T01:03:05;50735.94;;;-145.72;98.32
28648;BME280;17137;51.494;-0.262;2023-01-26T01:03:35;50737.30;;;-145.72;98.06
28648;BME280;17137;51.494;-0.262;2023-01-26T01:04:06;50734.71;;;-145.72;97.99
28648;BME280;17137;51.494;-0.262;2023-01-26T01:04:36;50735.45;;;-145.72;98.14
28648;BME280;17137;51.494;-0.262;2023-01-26T01:05:07;50734.83;;;-145.72;98.13
28648;BME280;17137;51.494;-0.262;2023-01-26T01:05:37;50727.44;;;-145.72;98.02
28648;BME280;17137;51.494;-0.262;2023-01-26T01:06:08;50726.70;;;-145.72;97.78
28648;BME280;17137;51.494;-0.262;2023-01-26T01:06:38;50740.14;;;-145.72;97.72
28648;BME280;17137;51.494;-0.262;2023-01-26T01:07:08;50728.55;;;-145.72;97.48
28648;BME280;17137;51.494;-0.262;2023-01-26T01:07:39;50727.68;;;-145.72;97.27
28648;BME280;17137;51.494;-0.262;2023-01-26T01:08:09;50735.70;;;-145.72;97.65
28648;BME280;17137;51.494;-0.262;2023-01-26T01:08:39;50733.11;;;-145.72;97.81
28648;BME280;17137;51.494;-0.262;2023-01-26T01:09:10;50722.63;;;-145.72;97.70
28648;BME280;17137;51.494;-0.262;2023-01-26T01:09:41;50738.29;;;-145.72;97.91
28648;BME280;17137;51.494;-0.262;2023-01-26T01:10:11;50748.64;;;-145.72;98.79
28648;BME280;17137;51.494;-0.262;2023-01-26T01:10:42;50751.11;;;-145.72;99.11
28648;BME280;17137;51.494;-0.262;2023-01-26T01:11:12;50740.51;;;-145.72;99.16
28648;BME280;17137;51.494;-0.262;2023-01-26T01:11:43;50740.14;;;-145.72;99.34
28648;BME280;17137;51.494;-0.262;2023-01-26T01:12:13;50753.70;;;-145.72;99.88
28648;BME280;17137;51.494;-0.262;2023-01-26T01:12:43;50744.20;;;-145.72;99.81
28648;BME280;17137;51.494;-0.262;2023-01-26T01:13:14;50746.42;;;-145.72;99.83
28648;BME280;17137;51.494;-0.262;2023-01-26T01:13:44;50747.16;;;-145.72;99.79
28648;BME280;17137;51.494;-0.262;2023-01-26T01:14:15;50753.57;;;-145.72;99.46
28648;BME280;17137;51.494;-0.262;2023-01-26T01:14:45;50736.19;;;-145.72;99.27
28648;BME280;17137;51.494;-0.262;2023-01-26T01:15:16;50747.53;;;-145.72;98.88
28648;BME280;17137;51.494;-0.262;2023-01-26T01:15:46;50732.37;;;-145.72;98.59
28648;BME280;17137;51.494;-0.262;2023-01-26T01:16:17;50746.18;;;-145.72;98.87
28648;BME280;17137;51.494;-0.262;2023-01-26T01:16:47;50746.92;;;-145.72;98.66
28648;BME280;17137;51.494;-0.262;2023-01-26T01:17:17;50732.62;;;-145.72;98.44
28648;BME280;17137;51.494;-0.262;2023-01-26T01:17:48;50757.52;;;-145.72;98.80
28648;BME280;17137;51.494;-0.262;2023-01-26T01:18:18;50740.14;;;-145.72;98.70
28648;BME280;17137;51.494;-0.262;2023-01-26T01:18:51;50739.40;;;-145.72;98.55
28648;BME280;17137;51.494;-0.262;2023-01-26T01:19:21;50741.00;;;-145.72;98.51
28648;BME280;17137;51.494;-0.262;2023-01-26T01:19:52;50747.41;;;-145.72;98.51
28648;BME280;17137;51.494;-0.262;2023-01-26T01:20:22;50749.63;;;-145.72;98.46
28648;BME280;17137;51.494;-0.262;2023-01-26T01:20:52;50749.01;;;-145.72;98.64
28648;BME280;17137;51.494;-0.262;2023-01-26T01:21:23;50752.83;;;-145.72;98.69
28648;BME280;17137;51.494;-0.262;2023-01-26T01:21:53;50743.59;;;-145.72;98.49
28648;BME280;17137;51.494;-0.262;2023-01-26T01:22:24;50746.42;;;-145.72;98.77
28648;BME280;17137;51.494;-0.262;2023-01-26T01:22:54;50736.93;;;-145.72;98.62
28648;BME280;17137;51.494;-0.262;2023-01-26T01:23:26;50744.57;;;-145.72;98.51
28648;BME280;17137;51.494;-0.262;2023-01-26T01:23:57;50754.19;;;-145.72;99.00
28648;BME280;17137;51.494;-0.262;2023-01-26T01:24:28;50762.57;;;-145.72;99.16
28648;BME280;17137;51.494;-0.262;2023-01-26T01:24:58;50756.78;;;-145.72;99.14
28648;BME280;17137;51.494;-0.262;2023-01-26T01:25:29;50750.61;;;-145.72;99.13
28648;BME280;17137;51.494;-0.262;2023-01-26T01:26:00;50759.49;;;-145.72;99.10
28648;BME280;17137;51.494;-0.262;2023-01-26T01:26:30;50757.64;;;-145.72;99.33
28648;BME280;17137;51.494;-0.262;2023-01-26T01:27:06;50750.98;;;-145.72;99.44
28648;BME280;17137;51.494;-0.262;2023-01-26T01:27:36;50755.05;;;-145.72;99.17
28648;BME280;17137;51.494;-0.262;2023-01-26T01:28:06;50745.31;;;-145.72;98.79
28648;BME280;17137;51.494;-0.262;2023-01-26T01:28:37;50752.71;;;-145.72;98.50
28648;BME280;17137;51.494;-0.262;2023-01-26T01:29:12;50753.70;;;-145.72;98.59
28648;BME280;17137;51.494;-0.262;2023-01-26T01:29:42;50757.15;;;-145.72;98.55
28648;BME280;17137;51.494;-0.262;2023-01-26T01:30:13;50745.19;;;-145.72;98.79
28648;BME280;17137;51.494;-0.262;2023-01-26T01:30:43;50756.66;;;-145.72;98.64
28648;BME280;17137;51.494;-0.262;2023-01-26T01:31:15;50754.07;;;-145.72;98.65
28648;BME280;17137;51.494;-0.262;2023-01-26T01:31:46;50750.98;;;-145.72;98.50
28648;BME280;17137;51.494;-0.262;2023-01-26T01:32:16;50752.59;;;-145.72;98.44
28648;BME280;17137;51.494;-0.262;2023-01-26T01:32:47;50752.96;;;-145.72;98.61
28648;BME280;17137;51.494;-0.262;2023-01-26T01:33:17;50755.67;;;-145.72;98.72
28648;BME280;17137;51.494;-0.262;2023-01-26T01:33:47;50752.71;;;-145.72;98.67
28648;BME280;17137;51.494;-0.262;2023-01-26T01:34:18;50754.44;;;-145.72;98.74
28648;BME280;17137;51.494;-0.262;2023-01-26T01:34:48;50752.34;;;-145.72;98.70
28648;BME280;17137;51.494;-0.262;2023-01-26T01:35:19;50746.05;;;-145.72;98.50
28648;BME280;17137;51.494;-0.262;2023-01-26T01:35:57;50744.70;;;-145.72;98.37
28648;BME280;17137;51.494;-0.262;2023-01-26T01:36:28;50749.51;;;-145.72;98.16
28648;BME280;17137;51.494;-0.262;2023-01-26T01:36:58;50742.48;;;-145.72;97.91
28648;BME280;17137;51.494;-0.262;2023-01-26T01:37:29;50743.09;;;-145.72;97.58
28648;BME280;17137;51.494;-0.262;2023-01-26T01:38:00;50741.00;;;-145.72;97.44
28648;BME280;17137;51.494;-0.262;2023-01-26T01:38:30;50734.22;;;-145.72;97.33
28648;BME280;17137;51.494;-0.262;2023-01-26T01:39:00;50727.44;;;-145.72;97.24
28648;BME280;17137;51.494;-0.262;2023-01-26T01:39:31;50740.51;;;-145.72;97.30
28648;BME280;17137;51.494;-0.262;2023-01-26T01:40:01;50744.45;;;-145.72;97.31
28648;BME280;17137;51.494;-0.262;2023-01-26T01:40:32;50745.81;;;-145.72;97.60
28648;BME280;17137;51.494;-0.262;2023-01-26T01:41:02;50741.74;;;-145.72;97.87
28648;BME280;17137;51.494;-0.262;2023-01-26T01:41:32;50737.30;;;-145.72;97.82
28648;BME280;17137;51.494;-0.262;2023-01-26T01:42:03;50736.44;;;-145.72;97.53
28648;BME280;17137;51.494;-0.262;2023-01-26T01:42:33;50734.09;;;-145.72;97.18
28648;BME280;17137;51.494;-0.262;2023-01-26T01:43:09;50739.40;;;-145.72;97.32
28648;BME280;17137;51.494;-0.262;2023-01-26T01:43:41;50735.57;;;-145.72;96.85
28648;BME280;17137;51.494;-0.262;2023-01-26T01:44:13;50746.05;;;-145.72;97.03
28648;BME280;17137;51.494;-0.262;2023-01-26T01:44:46;50747.90;;;-145.72;97.22
28648;BME280;17137;51.494;-0.262;2023-01-26T01:45:58;50750.98;;;-145.72;97.12
28648;BME280;17137;51.494;-0.262;2023-01-26T01:46:31;50755.05;;;-145.72;97.16
28648;BME280;17137;51.494;-0.262;2023-01-26T01:47:05;50749.14;;;-145.72;96.90
28648;BME280;17137;51.494;-0.262;2023-01-26T01:47:35;50740.14;;;-145.72;96.68
28648;BME280;17137;51.494;-0.262;2023-01-26T01:48:12;50734.71;;;-145.72;96.91
28648;BME280;17137;51.494;-0.262;2023-01-26T01:48:50;50735.94;;;-145.72;96.77
28648;BME280;17137;51.494;-0.262;2023-01-26T01:49:25;50741.49;;;-145.72;97.16
28648;BME280;17137;51.494;-0.262;2023-01-26T01:49:57;50744.45;;;-145.72;97.33
28648;BME280;17137;51.494;-0.262;2023-01-26T01:50:29;50743.34;;;-145.72;97.21
28648;BME280;17137;51.494;-0.262;2023-01-26T01:51:05;50743.09;;;-145.72;97.11
28648;BME280;17137;51.494;-0.262;2023-01-26T01:51:40;50736.81;;;-145.72;96.87
28648;BME280;17137;51.494;-0.262;2023-01-26T01:52:15;50739.52;;;-145.72;96.61
28648;BME280;17137;51.494;-0.262;2023-01-26T01:52:47;50731.75;;;-145.72;96.28
28648;BME280;17137;51.494;-0.262;2023-01-26T01:53:21;50739.77;;;-145.72;96.52
28648;BME280;17137;51.494;-0.262;2023-01-26T01:53:56;50730.89;;;-145.72;96.70
28648;BME280;17137;51.494;-0.262;2023-01-26T01:54:32;50740.14;;;-145.72;97.00
28648;BME280;17137;51.494;-0.262;2023-01-26T01:55:08;50754.07;;;-145.72;97.41
28648;BME280;17137;51.494;-0.262;2023-01-26T01:55:39;50753.57;;;-145.72;97.74
28648;BME280;17137;51.494;-0.262;2023-01-26T01:56:12;50755.92;;;-145.72;97.72
28648;BME280;17137;51.494;-0.262;2023-01-26T01:56:49;50735.70;;;-145.72;97.47
28648;BME280;17137;51.494;-0.262;2023-01-26T01:57:24;50747.53;;;-145.72;97.13
28648;BME280;17137;51.494;-0.262;2023-01-26T01:57:58;50747.78;;;-145.72;97.01
28648;BME280;17137;51.494;-0.262;2023-01-26T01:58:30;50750.24;;;-145.72;97.37
28648;BME280;17137;51.494;-0.262;2023-01-26T01:59:05;50752.46;;;-145.72;97.54
28648;BME280;17137;51.494;-0.262;2023-01-26T01:59:36;50734.09;;;-145.72;97.35
28648;BME280;17137;51.494;-0.262;2023-01-26T02:00:10;50749.01;;;-145.72;97.08
28648;BME280;17137;51.494;-0.262;2023-01-26T02:00:41;50731.26;;;-145.72;96.68
28648;BME280;17137;51.494;-0.262;2023-01-26T02:01:12;50741.98;;;-145.72;96.59
28648;BME280;17137;51.494;-0.262;2023-01-26T02:01:42;50741.86;;;-145.72;96.48
28648;BME280;17137;51.494;-0.262;2023-01-26T02:02:13;50742.60;;;-145.72;96.76
28648;BME280;17137;51.494;-0.262;2023-01-26T02:02:46;50740.75;;;-145.72;96.70
28648;BME280;17137;51.494;-0.262;2023-01-26T02:03:18;50742.35;;;-145.72;96.82
28648;BME280;17137;51.494;-0.262;2023-01-26T02:03:52;50750.98;;;-145.72;97.24
28648;BME280;17137;51.494;-0.262;2023-01-26T02:04:25;50739.03;;;-145.72;97.71
28648;BME280;17137;51.494;-0.262;2023-01-26T02:05:01;50749.75;;;-145.72;97.88
28648;BME280;17137;51.494;-0.262;2023-01-26T02:05:36;50753.08;;;-145.72;97.97
28648;BME280;17137;51.494;-0.262;2023-01-26T02:06:11;50744.94;;;-145.72;97.75
28648;BME280;17137;51.494;-0.262;2023-01-26T02:06:49;50759.37;;;-145.72;97.54
28648;BME280;17137;51.494;-0.262;2023-01-26T02:07:20;50751.11;;;-145.72;97.44
28648;BME280;17137;51.494;-0.262;2023-01-26T02:07:51;50747.29;;;-145.72;97.21
28648;BME280;17137;51.494;-0.262;2023-01-26T02:08:25;50753.82;;;-145.72;97.24
28648;BME280;17137;51.494;-0.262;2023-01-26T02:08:57;50765.41;;;-145.72;97.60
28648;BME280;17137;51.494;-0.262;2023-01-26T02:09:31;50757.15;;;-145.72;97.78
28648;BME280;17137;51.494;-0.262;2023-01-26T02:10:03;50756.04;;;-145.72;97.45
28648;BME280;17137;51.494;-0.262;2023-01-26T02:10:34;50759.12;;;-145.72;97.58
28648;BME280;17137;51.494;-0.262;2023-01-26T02:11:09;50760.85;;;-145.72;97.99
28648;BME280;17137;51.494;-0.262;2023-01-26T02:11:42;50753.70;;;-145.72;97.63
28648;BME280;17137;51.494;-0.262;2023-01-26T02:12:17;50755.42;;;-145.72;97.48
28648;BME280;17137;51.494;-0.262;2023-01-26T02:12:50;50754.93;;;-145.72;97.24
28648;BME280;17137;51.494;-0.262;2023-01-26T02:13:23;50751.11;;;-145.72;97.23
28648;BME280;17137;51.494;-0.262;2023-01-26T02:13:55;50763.68;;;-145.72;97.81
28648;BME280;17137;51.494;-0.262;2023-01-26T02:14:28;50749.01;;;-145.72;97.70
28648;BME280;17137;51.494;-0.262;2023-01-26T02:14:59;50752.71;;;-145.72;97.47
28648;BME280;17137;51.494;-0.262;2023-01-26T02:15:30;50757.52;;;-145.72;97.21
28648;BME280;17137;51.494;-0.262;2023-01-26T02:16:01;50757.27;;;-145.72;97.10
28648;BME280;17137;51.494;-0.262;2023-01-26T02:16:31;50758.63;;;-145.72;97.01
28648;BME280;17137;51.494;-0.262;2023-01-26T02:17:02;50740.75;;;-145.72;97.09
28648;BME280;17137;51.494;-0.262;2023-01-26T02:17:32;50761.09;;;-145.72;97.36
28648;BME280;17137;51.494;-0.262;2023-01-26T02:18:03;50760.60;;;-145.72;97.77
28648;BME280;17137;51.494;-0.262;2023-01-26T02:18:35;50766.27;;;-145.72;98.01
28648;BME280;17137;51.494;-0.262;2023-01-26T02:19:10;50756.90;;;-145.72;98.41
28648;BME280;17137;51.494;-0.262;2023-01-26T02:19:50;50769.11;;;-145.72;98.62
28648;BME280;17137;51.494;-0.262;2023-01-26T02:20:31;50767.38;;;-145.72;98.29
28648;BME280;17137;51.494;-0.262;2023-01-26T02:21:05;50769.35;;;-145.72;98.22
28648;BME280;17137;51.494;-0.262;2023-01-26T02:21:36;50758.01;;;-145.72;98.34
28648;BME280;17137;51.494;-0.262;2023-01-26T02:22:13;50771.20;;;-145.72;98.36
28648;BME280;17137;51.494;-0.262;2023-01-26T02:22:52;50760.35;;;-145.72;98.11
28648;BME280;17137;51.494;-0.262;2023-01-26T02:23:35;50767.26;;;-145.72;97.77
28648;BME280;17137;51.494;-0.262;2023-01-26T02:24:14;50772.19;;;-145.72;98.05
28648;BME280;17137;51.494;-0.262;2023-01-26T02:24:48;50754.44;;;-145.72;98.26
28648;BME280;17137;51.494;-0.262;2023-01-26T02:25:26;50768.24;;;-145.72;97.91
28648;BME280;17137;51.494;-0.262;2023-01-26T02:26:06;50767.26;;;-145.72;97.74
28648;BME280;17137;51.494;-0.262;2023-01-26T02:26:37;50770.09;;;-145.72;98.02
28648;BME280;17137;51.494;-0.262;2023-01-26T02:27:08;50769.72;;;-145.72;98.06
28648;BME280;17137;51.494;-0.262;2023-01-26T02:27:38;50764.92;;;-145.72;97.87
28648;BME280;17137;51.494;-0.262;2023-01-26T02:28:09;50768.12;;;-145.72;97.71
28648;BME280;17137;51.494;-0.262;2023-01-26T02:28:40;50771.20;;;-145.72;98.10
28648;BME280;17137;51.494;-0.262;2023-01-26T02:29:12;50771.33;;;-145.72;97.94
28648;BME280;17137;51.494;-0.262;2023-01-26T02:29:43;50761.46;;;-145.72;97.67
28648;BME280;17137;51.494;-0.262;2023-01-26T02:30:14;50767.75;;;-145.72;97.61
28648;BME280;17137;51.494;-0.262;2023-01-26T02:30:45;50768.74;;;-145.72;97.63
28648;BME280;17137;51.494;-0.262;2023-01-26T02:31:16;50760.11;;;-145.72;97.32
28648;BME280;17137;51.494;-0.262;2023-01-26T02:31:48;50765.78;;;-145.72;97.97
28648;BME280;17137;51.494;-0.262;2023-01-26T02:32:18;50761.09;;;-145.72;97.85
28648;BME280;17137;51.494;-0.262;2023-01-26T02:32:48;50764.55;;;-145.72;97.62
28648;BME280;17137;51.494;-0.262;2023-01-26T02:33:20;50759.98;;;-145.72;97.24
28648;BME280;17137;51.494;-0.262;2023-01-26T02:33:50;50766.89;;;-145.72;97.00
28648;BME280;17137;51.494;-0.262;2023-01-26T02:34:21;50767.75;;;-145.72;97.23
28648;BME280;17137;51.494;-0.262;2023-01-26T02:34:54;50766.76;;;-145.72;97.73
28648;BME280;17137;51.494;-0.262;2023-01-26T02:35:25;50757.64;;;-145.72;97.80
28648;BME280;17137;51.494;-0.262;2023-01-26T02:35:55;50777.37;;;-145.72;97.75
28648;BME280;17137;51.494;-0.262;2023-01-26T02:36:28;50763.07;;;-145.72;98.00
28648;BME280;17137;51.494;-0.262;2023-01-26T02:36:59;50765.16;;;-145.72;97.87
28648;BME280;17137;51.494;-0.262;2023-01-26T02:37:30;50776.01;;;-145.72;97.69
28648;BME280;17137;51.494;-0.262;2023-01-26T02:38:00;50777.12;;;-145.72;98.00
28648;BME280;17137;51.494;-0.262;2023-01-26T02:38:38;50769.72;;;-145.72;97.94
28648;BME280;17137;51.494;-0.262;2023-01-26T02:39:27;50782.67;;;-145.72;97.78
28648;BME280;17137;51.494;-0.262;2023-01-26T02:40:08;50767.75;;;-145.72;97.30
28648;BME280;17137;51.494;-0.262;2023-01-26T02:40:45;50767.13;;;-145.72;96.80
28648;BME280;17137;51.494;-0.262;2023-01-26T02:41:17;50771.94;;;-145.72;96.66
28648;BME280;17137;51.494;-0.262;2023-01-26T02:41:48;50768.37;;;-145.72;97.10
28648;BME280;17137;51.494;-0.262;2023-01-26T02:42:19;50787.60;;;-145.72;97.27